KEWB/EWB METAR and TAF weather

Enter ICAO airport designator
Station Type Date Time Source
KEWB METAR 2022/05/26 05:53 UTC NOAA

KEWB 260553Z AUTO 00000KT 10SM CLR 07/05 A3037 RMK AO2 SLP283 T00720050 10117 20061 58002


Station Type Date Time Source
KEWB Decoded METAR 2022/05/26 05:53 UTC NOAA

NEW BEDFORD REGIONAL AIRPORT, MA, United States (KEWB) 41-41N 070-58W 23M
May 26, 2022 - 01:53 AM EDT / 2022.05.26 0553 UTC
Wind: Calm:0
Visibility: 10 mile(s):0
Sky conditions: clear
Temperature: 45.0 F (7.2 C)
Dew Point: 41.0 F (5.0 C)
Relative Humidity: 85%
Pressure (altimeter): 30.37 in. Hg (1028 hPa)
Pressure tendency: 0.01 inches (0.2 hPa) lower than three hours ago
ob: KEWB 260553Z AUTO 00000KT 10SM CLR 07/05 A3037 RMK AO2 SLP283 T00720050 10117 20061 58002
cycle: 6

Station Type Date Time Source
KEWB TAF UTC NOAA

Error!

Example: see airport list